Time;durP1;ratioP1;P1;durP2;ratioP2;P2;SDS_P1;SDS_P2;PMS_P1;PMS_P2;Temp;Humidity;BMP_temperature;BMP_pressure;BME280_temperature;BME280_humidity;BME280_pressure;Samples;Min_cycle;Max_cycle;Signal;HPM_P1;HPM_P2
2021/09/06 00:00:14;;;;;;;;;;;15.60;45.60;;;;;;4313736;33;20006;-38
2021/09/06 00:02:41;;;;;;;;;;;15.70;45.70;;;;;;4302009;33;19991;-38
2021/09/06 00:05:09;;;;;;;;;;;15.70;45.50;;;;;;4314021;33;19991;-38
2021/09/06 00:07:36;;;;;;;;;;;15.80;45.20;;;;;;4313684;33;19986;-38
2021/09/06 00:10:35;;;;;;;;;;;15.90;45.40;;;;;;4313444;33;20418;-38
2021/09/06 00:13:02;;;;;;;;;;;16.00;45.50;;;;;;4313645;33;19986;-37
2021/09/06 00:15:28;;;;;;;;;;;16.10;45.30;;;;;;4313896;33;20073;-39
2021/09/06 00:17:54;;;;;;;;;;;16.20;45.30;;;;;;4289299;33;19968;-38
2021/09/06 00:20:21;;;;;;;;;;;16.30;45.30;;;;;;4289702;33;19972;-39
2021/09/06 00:22:47;;;;;;;;;;;16.30;46.40;;;;;;4314063;33;19963;-38
2021/09/06 00:25:13;;;;;;;;;;;16.30;46.40;;;;;;4289018;33;20436;-37
2021/09/06 00:27:40;;;;;;;;;;;16.30;46.30;;;;;;4313515;33;20511;-38
2021/09/06 00:30:06;;;;;;;;;;;16.30;46.10;;;;;;4313369;33;19990;-38
2021/09/06 00:32:32;;;;;;;;;;;16.30;46.00;;;;;;4313417;33;20007;-38
2021/09/06 00:34:59;;;;;;;;;;;16.30;45.80;;;;;;4313291;33;20037;-37
2021/09/06 00:37:25;;;;;;;;;;;16.20;45.60;;;;;;4313540;33;19963;-38
2021/09/06 00:39:51;;;;;;;;;;;16.20;45.60;;;;;;4345420;33;19978;-38
2021/09/06 00:42:17;;;;;;;;;;;16.20;45.60;;;;;;4322020;33;20076;-38
2021/09/06 00:44:44;;;;;;;;;;;16.20;45.60;;;;;;4343823;33;19962;-38
2021/09/06 00:47:10;;;;;;;;;;;16.20;45.60;;;;;;4345247;32;19978;-38
2021/09/06 00:49:36;;;;;;;;;;;16.20;45.50;;;;;;4345094;32;20002;-39
2021/09/06 00:52:03;;;;;;;;;;;16.20;45.50;;;;;;4330230;33;20043;-37
2021/09/06 00:54:29;;;;;;;;;;;16.20;45.40;;;;;;4298166;33;19972;-38
2021/09/06 00:56:55;;;;;;;;;;;16.20;45.40;;;;;;4298516;33;19998;-37
2021/09/06 00:59:22;;;;;;;;;;;16.20;45.30;;;;;;4298828;33;19999;-38
2021/09/06 01:01:48;;;;;;;;;;;16.30;45.30;;;;;;4283598;33;20052;-38
2021/09/06 01:04:14;;;;;;;;;;;16.30;45.10;;;;;;4283692;33;20437;-39
2021/09/06 01:06:40;;;;;;;;;;;16.40;44.90;;;;;;4283854;33;20063;-38
2021/09/06 01:09:07;;;;;;;;;;;16.50;44.80;;;;;;4284132;33;20432;-37
2021/09/06 01:11:33;;;;;;;;;;;16.60;44.60;;;;;;4283645;33;20051;-38
2021/09/06 01:14:00;;;;;;;;;;;16.80;44.50;;;;;;4259815;33;19992;-39
2021/09/06 01:16:26;;;;;;;;;;;16.80;44.20;;;;;;4283777;33;20038;-38
2021/09/06 01:18:52;;;;;;;;;;;16.90;44.10;;;;;;4283436;33;19978;-38
2021/09/06 01:21:18;;;;;;;;;;;17.00;44.00;;;;;;4283552;33;19969;-39
2021/09/06 01:23:45;;;;;;;;;;;17.10;43.90;;;;;;4294965;33;20043;-38
2021/09/06 01:26:11;;;;;;;;;;;17.20;43.80;;;;;;4320860;33;20483;-39
2021/09/06 01:28:37;;;;;;;;;;;17.20;43.60;;;;;;4327188;33;20368;-38
2021/09/06 01:31:03;;;;;;;;;;;17.30;43.50;;;;;;4315136;33;19974;-40
2021/09/06 01:33:30;;;;;;;;;;;17.30;43.40;;;;;;4327280;33;20001;-38
2021/09/06 01:35:56;;;;;;;;;;;17.40;43.30;;;;;;4326983;33;19970;-37
2021/09/06 01:38:22;;;;;;;;;;;17.40;43.20;;;;;;4329739;33;20013;-40
2021/09/06 01:40:48;;;;;;;;;;;17.40;43.10;;;;;;4344167;32;19982;-39
2021/09/06 01:43:14;;;;;;;;;;;17.50;43.10;;;;;;4334441;33;20380;-38
2021/09/06 01:45:40;;;;;;;;;;;17.50;43.00;;;;;;4344302;33;19962;-39
2021/09/06 01:48:07;;;;;;;;;;;17.50;43.00;;;;;;4344104;33;20062;-39
2021/09/06 01:50:33;;;;;;;;;;;17.40;43.00;;;;;;4344226;33;19963;-39
2021/09/06 01:52:59;;;;;;;;;;;17.50;43.10;;;;;;4330339;33;20458;-40
2021/09/06 01:55:25;;;;;;;;;;;17.40;43.10;;;;;;4344367;33;19959;-40
2021/09/06 01:57:51;;;;;;;;;;;17.40;43.10;;;;;;4344253;33;20505;-39
2021/09/06 02:00:19;;;;;;;;;;;17.30;43.10;;;;;;4343964;33;20045;-39
2021/09/06 02:02:45;;;;;;;;;;;17.30;43.20;;;;;;4344139;33;19974;-40
2021/09/06 02:05:11;;;;;;;;;;;17.30;43.30;;;;;;4344105;33;20040;-39
2021/09/06 02:07:37;;;;;;;;;;;17.20;43.40;;;;;;4344153;33;19970;-39
2021/09/06 02:10:05;;;;;;;;;;;17.30;43.50;;;;;;4343973;33;20408;-39
2021/09/06 02:12:31;;;;;;;;;;;17.30;43.50;;;;;;4343965;33;20393;-39
2021/09/06 02:14:57;;;;;;;;;;;17.20;43.40;;;;;;4343957;33;19958;-38
2021/09/06 02:17:23;;;;;;;;;;;17.20;43.30;;;;;;4343950;33;20132;-40
2021/09/06 02:19:50;;;;;;;;;;;17.20;43.40;;;;;;4343853;33;19986;-40
2021/09/06 02:22:16;;;;;;;;;;;17.20;43.50;;;;;;4343638;33;19966;-39
2021/09/06 02:24:42;;;;;;;;;;;17.20;43.40;;;;;;4330214;33;20045;-39
2021/09/06 02:27:08;;;;;;;;;;;17.20;43.40;;;;;;4343732;33;20397;-40
2021/09/06 02:29:34;;;;;;;;;;;17.20;43.40;;;;;;4343318;32;20365;-38
2021/09/06 02:32:01;;;;;;;;;;;17.20;43.50;;;;;;4343699;33;20424;-40
2021/09/06 02:34:27;;;;;;;;;;;17.20;43.60;;;;;;4296674;33;19987;-39
2021/09/06 02:36:53;;;;;;;;;;;17.20;43.60;;;;;;4297037;33;20400;-40
2021/09/06 02:39:19;;;;;;;;;;;17.30;43.70;;;;;;4297111;33;20098;-40
2021/09/06 02:41:46;;;;;;;;;;;17.30;43.70;;;;;;4288455;33;19964;-40
2021/09/06 02:44:12;;;;;;;;;;;17.30;43.80;;;;;;4314152;33;19986;-40
2021/09/06 02:46:38;;;;;;;;;;;17.40;43.70;;;;;;4326552;33;20446;-40
2021/09/06 02:49:04;;;;;;;;;;;17.40;43.70;;;;;;4326092;33;20406;-39
2021/09/06 02:51:30;;;;;;;;;;;17.50;43.70;;;;;;4314414;33;19983;-39
2021/09/06 02:53:56;;;;;;;;;;;17.50;43.60;;;;;;4326528;33;19970;-39
2021/09/06 02:56:23;;;;;;;;;;;17.50;43.70;;;;;;4326229;33;20048;-39
2021/09/06 02:58:49;;;;;;;;;;;17.50;43.90;;;;;;4326345;33;19978;-39
2021/09/06 03:01:15;;;;;;;;;;;17.50;44.00;;;;;;4326104;33;19970;-39
2021/09/06 03:03:42;;;;;;;;;;;17.50;44.00;;;;;;4326281;33;20061;-40
2021/09/06 03:06:08;;;;;;;;;;;17.60;43.90;;;;;;4339235;33;19975;-38
2021/09/06 03:08:34;;;;;;;;;;;17.60;43.90;;;;;;4343205;32;19967;-38
2021/09/06 03:11:01;;;;;;;;;;;17.60;43.90;;;;;;4343245;33;20407;-38
2021/09/06 03:13:30;;;;;;;;;;;17.70;43.70;;;;;;4343310;33;19997;-38
2021/09/06 03:15:56;;;;;;;;;;;17.70;43.50;;;;;;4311164;33;19975;-38
2021/09/06 03:18:22;;;;;;;;;;;17.80;43.30;;;;;;4311481;33;19971;-39
2021/09/06 03:20:48;;;;;;;;;;;17.90;43.00;;;;;;4311505;33;19983;-38
2021/09/06 03:23:14;;;;;;;;;;;18.00;42.70;;;;;;4311684;33;20419;-39
2021/09/06 03:25:41;;;;;;;;;;;18.10;42.30;;;;;;4311055;33;20055;-38
2021/09/06 03:28:07;;;;;;;;;;;18.10;41.80;;;;;;4311187;33;19994;-38
2021/09/06 03:30:33;;;;;;;;;;;18.20;41.90;;;;;;4311099;33;19982;-39
2021/09/06 03:32:59;;;;;;;;;;;18.20;41.60;;;;;;4311546;33;20039;-39
2021/09/06 03:35:25;;;;;;;;;;;18.30;41.30;;;;;;4311247;33;19967;-38
2021/09/06 03:37:52;;;;;;;;;;;18.30;41.30;;;;;;4311484;33;19964;-38
2021/09/06 03:40:18;;;;;;;;;;;18.30;41.20;;;;;;4311494;33;20442;-38
2021/09/06 03:42:44;;;;;;;;;;;18.40;41.20;;;;;;4321475;33;19966;-38
2021/09/06 03:45:12;;;;;;;;;;;18.50;41.00;;;;;;4328782;33;19963;-38
2021/09/06 03:47:38;;;;;;;;;;;18.50;40.80;;;;;;4317111;33;19963;-39
2021/09/06 03:50:04;;;;;;;;;;;18.60;40.50;;;;;;4345566;33;19963;-38
2021/09/06 03:52:31;;;;;;;;;;;18.70;40.20;;;;;;4345910;33;20445;-39
2021/09/06 03:54:57;;;;;;;;;;;18.70;40.00;;;;;;4345886;33;20005;-39
2021/09/06 03:57:23;;;;;;;;;;;18.80;40.00;;;;;;4345912;33;20275;-39
2021/09/06 03:59:49;;;;;;;;;;;19.00;40.00;;;;;;4345370;33;20073;-40
2021/09/06 04:02:16;;;;;;;;;;;19.10;39.70;;;;;;4331634;33;19974;-38
2021/09/06 04:04:42;;;;;;;;;;;19.30;39.30;;;;;;4345344;33;19977;-40
2021/09/06 04:07:09;;;;;;;;;;;19.60;39.00;;;;;;4345721;33;20411;-38
2021/09/06 04:09:35;;;;;;;;;;;19.80;38.60;;;;;;4331669;33;19974;-39
2021/09/06 04:12:01;;;;;;;;;;;20.00;38.40;;;;;;4332135;33;19974;-39
2021/09/06 04:14:27;;;;;;;;;;;20.30;38.50;;;;;;4331353;33;20537;-39
2021/09/06 04:16:54;;;;;;;;;;;20.60;38.20;;;;;;4331811;33;19974;-39
2021/09/06 04:19:20;;;;;;;;;;;20.80;38.00;;;;;;4345338;33;20039;-40
2021/09/06 04:21:46;;;;;;;;;;;21.10;37.60;;;;;;4345145;33;19966;-39
2021/09/06 04:24:12;;;;;;;;;;;21.30;36.80;;;;;;4345367;33;19978;-39
2021/09/06 04:26:38;;;;;;;;;;;21.40;36.00;;;;;;4345398;33;19981;-38
2021/09/06 04:29:04;;;;;;;;;;;21.50;36.00;;;;;;4345531;33;19974;-39
2021/09/06 04:31:31;;;;;;;;;;;21.50;35.90;;;;;;4345583;33;19967;-38
2021/09/06 04:33:57;;;;;;;;;;;21.40;35.70;;;;;;4327238;33;19993;-38
2021/09/06 04:36:23;;;;;;;;;;;21.40;35.90;;;;;;4286288;33;20042;-38
2021/09/06 04:38:49;;;;;;;;;;;21.50;36.20;;;;;;4298764;33;19991;-39
2021/09/06 04:41:15;;;;;;;;;;;21.40;36.20;;;;;;4298540;33;20057;-39
2021/09/06 04:43:42;;;;;;;;;;;21.40;36.20;;;;;;4298804;33;20455;-38
2021/09/06 04:46:08;;;;;;;;;;;21.40;36.10;;;;;;4298381;33;20006;-39
2021/09/06 04:48:35;;;;;;;;;;;21.40;36.20;;;;;;4298749;33;20044;-37
2021/09/06 04:51:04;;;;;;;;;;;21.40;36.30;;;;;;4298350;33;19991;-39
2021/09/06 04:53:30;;;;;;;;;;;21.40;36.20;;;;;;4297921;33;19975;-38
2021/09/06 04:55:56;;;;;;;;;;;21.50;36.00;;;;;;4286394;33;19995;-37
2021/09/06 04:58:22;;;;;;;;;;;21.60;36.00;;;;;;4298415;33;19972;-39
2021/09/06 05:00:48;;;;;;;;;;;21.70;36.10;;;;;;4298208;33;19994;-38
2021/09/06 05:03:15;;;;;;;;;;;21.90;36.00;;;;;;4298294;33;20047;-38
2021/09/06 05:05:41;;;;;;;;;;;22.20;35.70;;;;;;4321532;33;19998;-38
2021/09/06 05:08:07;;;;;;;;;;;22.40;35.10;;;;;;4341184;33;20016;-38
2021/09/06 05:10:33;;;;;;;;;;;22.60;35.00;;;;;;4344740;32;19967;-38
2021/09/06 05:12:59;;;;;;;;;;;22.90;34.90;;;;;;4350012;32;19962;-37
2021/09/06 05:15:26;;;;;;;;;;;23.20;34.50;;;;;;4359418;32;19958;-38
2021/09/06 05:17:52;;;;;;;;;;;23.60;34.30;;;;;;4359332;32;19971;-37
2021/09/06 05:20:18;;;;;;;;;;;24.00;33.20;;;;;;4359645;32;19973;-37
2021/09/06 05:22:44;;;;;;;;;;;24.30;32.30;;;;;;4359356;32;19973;-38
2021/09/06 05:25:10;;;;;;;;;;;24.40;31.00;;;;;;4359356;32;19959;-37
2021/09/06 05:27:37;;;;;;;;;;;24.50;30.60;;;;;;4359533;32;20031;-39
2021/09/06 05:30:03;;;;;;;;;;;24.60;30.90;;;;;;4359000;32;19970;-37
2021/09/06 05:32:30;;;;;;;;;;;24.80;31.20;;;;;;4345270;32;19971;-38
2021/09/06 05:34:56;;;;;;;;;;;24.90;30.40;;;;;;4359248;32;19958;-38
2021/09/06 05:37:22;;;;;;;;;;;25.20;30.00;;;;;;4358971;32;19985;-39
2021/09/06 05:39:48;;;;;;;;;;;25.60;29.50;;;;;;4358907;32;20045;-37
2021/09/06 05:42:14;;;;;;;;;;;26.10;29.70;;;;;;4359034;32;20005;-38
2021/09/06 05:44:41;;;;;;;;;;;26.60;29.60;;;;;;4358657;32;20429;-38
2021/09/06 05:47:07;;;;;;;;;;;27.00;29.40;;;;;;4358855;32;20071;-37
2021/09/06 05:49:33;;;;;;;;;;;27.20;28.80;;;;;;4359175;32;19986;-38
2021/09/06 05:52:00;;;;;;;;;;;27.30;28.60;;;;;;4358837;32;20004;-38
2021/09/06 05:54:26;;;;;;;;;;;27.30;28.20;;;;;;4358433;32;19993;-38
2021/09/06 05:56:52;;;;;;;;;;;27.40;28.60;;;;;;4358671;32;19981;-38
2021/09/06 05:59:18;;;;;;;;;;;27.40;28.50;;;;;;4358396;32;19966;-38
2021/09/06 06:01:44;;;;;;;;;;;27.50;28.40;;;;;;4359069;32;20077;-39
2021/09/06 06:04:11;;;;;;;;;;;27.90;28.50;;;;;;4358501;32;20524;-38
2021/09/06 06:06:37;;;;;;;;;;;28.20;28.50;;;;;;4358766;32;20532;-45
2021/09/06 06:09:04;;;;;;;;;;;28.50;28.50;;;;;;4344970;32;20071;-38
2021/09/06 06:11:31;;;;;;;;;;;28.80;28.00;;;;;;4359030;32;19974;-38
2021/09/06 06:13:57;;;;;;;;;;;29.10;27.30;;;;;;4358694;32;19973;-38
2021/09/06 06:16:24;;;;;;;;;;;29.00;27.20;;;;;;4358256;32;20432;-37
2021/09/06 06:18:50;;;;;;;;;;;29.10;27.30;;;;;;4358747;32;20034;-39
2021/09/06 06:21:16;;;;;;;;;;;29.10;27.00;;;;;;4358433;32;20422;-38
2021/09/06 06:23:42;;;;;;;;;;;29.10;27.00;;;;;;4358844;32;19974;-37
2021/09/06 06:26:08;;;;;;;;;;;29.20;26.70;;;;;;4358705;32;20487;-38
2021/09/06 06:28:35;;;;;;;;;;;29.30;26.00;;;;;;4358519;32;19978;-38
2021/09/06 06:31:01;;;;;;;;;;;29.20;25.50;;;;;;4358327;32;20062;-39
2021/09/06 06:33:29;;;;;;;;;;;29.10;25.40;;;;;;4358396;32;19975;-38
2021/09/06 06:35:58;;;;;;;;;;;29.00;25.00;;;;;;4358786;32;19994;-37
2021/09/06 06:38:24;;;;;;;;;;;28.90;25.40;;;;;;4358420;32;19996;-37
2021/09/06 06:40:51;;;;;;;;;;;29.00;25.80;;;;;;4344735;32;19973;-38
2021/09/06 06:43:17;;;;;;;;;;;29.20;26.00;;;;;;4346821;32;20004;-37
2021/09/06 06:45:43;;;;;;;;;;;29.40;26.10;;;;;;4299101;33;19983;-39
2021/09/06 06:48:09;;;;;;;;;;;29.80;25.90;;;;;;4311619;33;19971;-38
2021/09/06 06:50:35;;;;;;;;;;;30.10;25.40;;;;;;4299264;33;19983;-38
2021/09/06 06:53:02;;;;;;;;;;;29.90;25.20;;;;;;4311483;33;19978;-38
2021/09/06 06:55:28;;;;;;;;;;;29.90;25.70;;;;;;4311580;33;19964;-39
2021/09/06 06:57:54;;;;;;;;;;;29.80;25.60;;;;;;4311690;33;20039;-39
2021/09/06 07:00:21;;;;;;;;;;;29.70;25.40;;;;;;4311403;33;20084;-39
2021/09/06 07:02:47;;;;;;;;;;;29.60;25.60;;;;;;4311074;33;20070;-38
2021/09/06 07:05:13;;;;;;;;;;;29.40;25.70;;;;;;4299671;33;19987;-38
2021/09/06 07:07:39;;;;;;;;;;;29.40;25.80;;;;;;4299345;33;20023;-39
2021/09/06 07:10:06;;;;;;;;;;;29.30;25.50;;;;;;4299312;33;19971;-39
2021/09/06 07:12:33;;;;;;;;;;;28.90;25.50;;;;;;4311533;33;20039;-38
2021/09/06 07:14:59;;;;;;;;;;;28.70;25.90;;;;;;4299182;33;19975;-38
2021/09/06 07:17:25;;;;;;;;;;;28.30;26.00;;;;;;4339322;33;20002;-38
2021/09/06 07:19:51;;;;;;;;;;;27.80;26.20;;;;;;4332327;33;20026;-38
2021/09/06 07:22:17;;;;;;;;;;;27.40;26.50;;;;;;4345781;33;20000;-38
2021/09/06 07:24:44;;;;;;;;;;;27.00;26.80;;;;;;4332370;33;19974;-37
2021/09/06 07:27:10;;;;;;;;;;;26.80;27.20;;;;;;4346169;33;19963;-37
2021/09/06 07:29:36;;;;;;;;;;;26.50;27.70;;;;;;4345760;33;20035;-39
2021/09/06 07:32:03;;;;;;;;;;;26.20;27.90;;;;;;4332042;33;19965;-38
2021/09/06 07:34:34;;;;;;;;;;;26.00;28.20;;;;;;4346162;33;19977;-37
2021/09/06 07:37:02;;;;;;;;;;;25.80;28.50;;;;;;4346154;33;19966;-38
2021/09/06 07:39:28;;;;;;;;;;;25.60;29.10;;;;;;4346001;33;20405;-38
2021/09/06 07:41:55;;;;;;;;;;;25.40;29.50;;;;;;4348806;32;20336;-38
2021/09/06 07:44:21;;;;;;;;;;;25.20;29.60;;;;;;4360600;32;19989;-38
2021/09/06 07:46:47;;;;;;;;;;;25.00;29.60;;;;;;4360944;32;19971;-37
2021/09/06 07:49:13;;;;;;;;;;;24.80;29.10;;;;;;4360592;32;20030;-38
2021/09/06 07:51:39;;;;;;;;;;;24.60;28.90;;;;;;4360705;32;19970;-38
2021/09/06 07:54:06;;;;;;;;;;;24.50;28.90;;;;;;4360272;32;19965;-38
2021/09/06 07:56:33;;;;;;;;;;;24.30;28.50;;;;;;4360319;32;19982;-38
2021/09/06 07:58:59;;;;;;;;;;;24.30;28.50;;;;;;4346474;32;20410;-38
2021/09/06 08:01:25;;;;;;;;;;;24.10;27.90;;;;;;4360168;32;20510;-38
2021/09/06 08:03:51;;;;;;;;;;;24.10;28.30;;;;;;4360426;32;19994;-39
2021/09/06 08:06:17;;;;;;;;;;;24.20;28.50;;;;;;4359862;32;19976;-38
2021/09/06 08:08:43;;;;;;;;;;;24.20;28.60;;;;;;4360676;32;19966;-38
2021/09/06 08:11:09;;;;;;;;;;;24.20;28.00;;;;;;4360383;32;20055;-38
2021/09/06 08:13:36;;;;;;;;;;;24.10;27.80;;;;;;4360099;32;19981;-39
2021/09/06 08:16:02;;;;;;;;;;;24.00;27.80;;;;;;4360332;32;19970;-39
2021/09/06 08:18:28;;;;;;;;;;;24.00;27.70;;;;;;4360514;32;19966;-39
2021/09/06 08:20:55;;;;;;;;;;;23.90;27.90;;;;;;4360097;32;21176;-48
2021/09/06 08:23:21;;;;;;;;;;;24.00;27.90;;;;;;4359891;32;20077;-46
2021/09/06 08:25:47;;;;;;;;;;;24.10;27.80;;;;;;4359918;32;19966;-46
2021/09/06 08:28:13;;;;;;;;;;;24.10;27.90;;;;;;4359112;32;19974;-45
2021/09/06 08:30:40;;;;;;;;;;;24.20;27.80;;;;;;4345931;32;19977;-34
2021/09/06 08:33:06;;;;;;;;;;;24.30;27.70;;;;;;4359613;32;19958;-39
2021/09/06 08:35:32;;;;;;;;;;;24.30;27.70;;;;;;4360022;32;19967;-39
2021/09/06 08:37:59;;;;;;;;;;;24.40;27.70;;;;;;4360081;32;19969;-39
2021/09/06 08:40:25;;;;;;;;;;;24.60;27.90;;;;;;4359786;32;19969;-39
2021/09/06 08:42:51;;;;;;;;;;;24.80;27.40;;;;;;4351185;32;19973;-38
2021/09/06 08:45:17;;;;;;;;;;;24.80;27.20;;;;;;4344752;33;19971;-39
2021/09/06 08:47:43;;;;;;;;;;;24.90;27.20;;;;;;4344747;33;19993;-39
2021/09/06 08:50:11;;;;;;;;;;;24.80;27.10;;;;;;4318991;33;20072;-40
2021/09/06 08:52:37;;;;;;;;;;;24.80;26.40;;;;;;4344770;33;20435;-41
2021/09/06 08:55:04;;;;;;;;;;;24.80;26.60;;;;;;4330898;33;19974;-39
2021/09/06 08:57:30;;;;;;;;;;;24.90;26.90;;;;;;4331303;33;20462;-39
2021/09/06 09:00:04;;;;;;;;;;;25.20;26.70;;;;;;4344839;33;19963;-39
2021/09/06 09:02:33;;;;;;;;;;;25.40;26.50;;;;;;4345057;33;19982;-40
2021/09/06 09:05:00;;;;;;;;;;;25.60;26.40;;;;;;4344585;33;19993;-39
2021/09/06 09:07:27;;;;;;;;;;;25.90;25.90;;;;;;4344307;33;20519;-38
2021/09/06 09:09:53;;;;;;;;;;;25.90;25.90;;;;;;4344741;33;19970;-39
2021/09/06 09:12:21;;;;;;;;;;;25.80;26.00;;;;;;4344625;33;19975;-39
2021/09/06 09:14:58;;;;;;;;;;;25.70;26.40;;;;;;4330634;33;19963;-39
2021/09/06 09:17:24;;;;;;;;;;;25.50;26.30;;;;;;4331944;33;20075;-39
2021/09/06 09:19:51;;;;;;;;;;;25.30;26.20;;;;;;4330938;33;19970;-38
2021/09/06 09:22:19;;;;;;;;;;;25.20;26.10;;;;;;4344292;33;19975;-40
2021/09/06 09:25:05;;;;;;;;;;;25.10;26.30;;;;;;4344306;33;19989;-39
2021/09/06 09:27:35;;;;;;;;;;;25.00;26.10;;;;;;4344685;33;19971;-38
2021/09/06 09:30:03;;;;;;;;;;;24.90;26.00;;;;;;4344292;33;20042;-38
2021/09/06 09:32:32;;;;;;;;;;;24.70;25.80;;;;;;4344459;33;19962;-38
2021/09/06 09:34:58;;;;;;;;;;;24.50;25.40;;;;;;4344583;33;20031;-37
2021/09/06 09:37:26;;;;;;;;;;;24.30;25.40;;;;;;4330536;33;20002;-38
2021/09/06 09:39:59;;;;;;;;;;;24.10;25.50;;;;;;4344314;32;20062;-37
2021/09/06 09:42:25;;;;;;;;;;;23.90;25.70;;;;;;4349953;32;19985;-37
2021/09/06 09:44:56;;;;;;;;;;;23.70;26.10;;;;;;4358956;32;19974;-38
2021/09/06 09:47:26;;;;;;;;;;;23.50;26.50;;;;;;4359363;32;19998;-38
2021/09/06 09:49:54;;;;;;;;;;;23.40;26.60;;;;;;4358964;32;19970;-38
2021/09/06 09:52:21;;;;;;;;;;;23.40;26.50;;;;;;4358876;32;20402;-38
2021/09/06 09:54:49;;;;;;;;;;;23.40;26.50;;;;;;4358624;32;20053;-38
2021/09/06 09:57:16;;;;;;;;;;;23.50;26.40;;;;;;4358815;32;19977;-39
2021/09/06 09:59:42;;;;;;;;;;;23.50;26.60;;;;;;4359111;32;19962;-38
2021/09/06 10:02:18;;;;;;;;;;;23.70;26.80;;;;;;4358867;32;20063;-38
2021/09/06 10:04:47;;;;;;;;;;;23.80;27.00;;;;;;4358622;32;19998;-38
2021/09/06 10:07:14;;;;;;;;;;;24.00;26.90;;;;;;4345272;32;20351;-39
2021/09/06 10:09:42;;;;;;;;;;;24.00;26.90;;;;;;4332617;32;20397;-39
2021/09/06 10:12:09;;;;;;;;;;;24.20;27.10;;;;;;4344381;32;20491;-40
2021/09/06 10:14:35;;;;;;;;;;;24.50;26.80;;;;;;4358545;32;19978;-39
2021/09/06 10:17:07;;;;;;;;;;;24.70;26.60;;;;;;4358711;32;19974;-39
2021/09/06 10:19:44;;;;;;;;;;;24.80;26.10;;;;;;4344980;32;20417;-38
2021/09/06 10:22:21;;;;;;;;;;;24.90;26.10;;;;;;4358683;32;20377;-39
2021/09/06 10:24:59;;;;;;;;;;;25.00;25.90;;;;;;4358703;32;19974;-39
2021/09/06 10:27:26;;;;;;;;;;;25.20;25.90;;;;;;4358711;32;19962;-39
2021/09/06 10:30:07;;;;;;;;;;;25.50;25.60;;;;;;4358030;32;20430;-39
2021/09/06 10:32:35;;;;;;;;;;;25.80;25.50;;;;;;4358379;32;19974;-38
2021/09/06 10:35:12;;;;;;;;;;;26.00;25.30;;;;;;4358448;32;19958;-38
2021/09/06 10:37:39;;;;;;;;;;;26.10;24.90;;;;;;4358259;32;20045;-38
2021/09/06 10:40:10;;;;;;;;;;;26.00;24.80;;;;;;4358338;32;19989;-39
2021/09/06 10:42:38;;;;;;;;;;;26.00;25.10;;;;;;4351357;32;20068;-39
2021/09/06 10:45:05;;;;;;;;;;;25.90;25.20;;;;;;4343437;33;19967;-38
2021/09/06 10:47:42;;;;;;;;;;;25.90;25.30;;;;;;4343237;33;20064;-38
2021/09/06 10:50:19;;;;;;;;;;;25.90;25.00;;;;;;4329409;33;19990;-39
2021/09/06 10:52:46;;;;;;;;;;;25.80;24.50;;;;;;4343314;33;19971;-38
2021/09/06 10:55:13;;;;;;;;;;;25.70;24.50;;;;;;4343422;33;19983;-38
2021/09/06 10:57:39;;;;;;;;;;;25.40;24.50;;;;;;4343408;33;20050;-38
2021/09/06 11:00:06;;;;;;;;;;;25.10;24.70;;;;;;4343124;33;19967;-37
2021/09/06 11:02:33;;;;;;;;;;;24.80;25.20;;;;;;4343274;33;20374;-39
2021/09/06 11:04:59;;;;;;;;;;;24.60;25.70;;;;;;4329278;33;19990;-38
2021/09/06 11:07:26;;;;;;;;;;;24.40;26.20;;;;;;4343497;33;20070;-38
2021/09/06 11:09:52;;;;;;;;;;;24.20;26.40;;;;;;4343079;33;20053;-38
2021/09/06 11:12:18;;;;;;;;;;;24.00;26.60;;;;;;4329577;33;20079;-38
2021/09/06 11:14:46;;;;;;;;;;;23.90;26.80;;;;;;4329309;33;20023;-39
2021/09/06 11:17:20;;;;;;;;;;;23.90;26.90;;;;;;4343411;33;19969;-39
2021/09/06 11:19:48;;;;;;;;;;;23.90;26.90;;;;;;4343025;33;19967;-39
2021/09/06 11:22:16;;;;;;;;;;;23.90;26.80;;;;;;4343172;33;19994;-39
2021/09/06 11:25:03;;;;;;;;;;;23.90;26.60;;;;;;4331328;33;20031;-38
2021/09/06 11:27:53;;;;;;;;;;;24.00;26.60;;;;;;4331113;33;20396;-39
2021/09/06 11:30:23;;;;;;;;;;;24.00;26.60;;;;;;4343226;33;20577;-39
2021/09/06 11:32:49;;;;;;;;;;;24.00;26.50;;;;;;4343341;33;20411;-39
2021/09/06 11:35:16;;;;;;;;;;;23.90;26.30;;;;;;4329472;33;20055;-39
2021/09/06 11:37:42;;;;;;;;;;;23.80;26.50;;;;;;4342830;33;19983;-38
2021/09/06 11:40:09;;;;;;;;;;;23.70;26.90;;;;;;4343353;33;19973;-39
2021/09/06 11:42:35;;;;;;;;;;;23.80;27.60;;;;;;4349679;32;20057;-38
2021/09/06 11:45:01;;;;;;;;;;;24.00;27.80;;;;;;4343820;32;19970;-39
2021/09/06 11:47:29;;;;;;;;;;;24.40;27.80;;;;;;4344299;32;20066;-39
2021/09/06 11:49:59;;;;;;;;;;;24.90;27.70;;;;;;4344341;32;19978;-38
2021/09/06 11:52:36;;;;;;;;;;;25.10;27.40;;;;;;4357637;32;19982;-38
2021/09/06 11:55:16;;;;;;;;;;;25.20;27.40;;;;;;4357933;32;19990;-38
2021/09/06 11:57:43;;;;;;;;;;;25.30;27.40;;;;;;4357371;32;20362;-39
2021/09/06 12:00:10;;;;;;;;;;;25.50;27.90;;;;;;4343682;32;20367;-38
2021/09/06 12:02:58;;;;;;;;;;;25.80;27.70;;;;;;4359386;32;19973;-38
2021/09/06 12:05:24;;;;;;;;;;;26.20;27.40;;;;;;4360191;32;19966;-39
2021/09/06 12:07:53;;;;;;;;;;;26.50;27.10;;;;;;4334041;32;19993;-39
2021/09/06 12:10:31;;;;;;;;;;;26.80;26.90;;;;;;4360451;32;20051;-39
2021/09/06 12:13:03;;;;;;;;;;;27.00;26.80;;;;;;4360053;32;20039;-39
2021/09/06 12:15:30;;;;;;;;;;;27.10;26.50;;;;;;4360773;32;20099;-39
2021/09/06 12:18:13;;;;;;;;;;;27.10;26.50;;;;;;4346258;32;20046;-38
2021/09/06 12:20:41;;;;;;;;;;;27.10;26.50;;;;;;4360054;32;19997;-38
2021/09/06 12:23:11;;;;;;;;;;;26.90;27.30;;;;;;4359935;32;20468;-38
2021/09/06 12:25:38;;;;;;;;;;;26.90;28.40;;;;;;4359702;32;19962;-38
2021/09/06 12:28:14;;;;;;;;;;;26.80;29.40;;;;;;4359732;32;20409;-38
2021/09/06 12:30:41;;;;;;;;;;;26.80;29.00;;;;;;4359777;32;20050;-38
2021/09/06 12:33:07;;;;;;;;;;;26.50;29.00;;;;;;4359980;32;19981;-38
2021/09/06 12:35:34;;;;;;;;;;;26.10;28.90;;;;;;4345940;32;19977;-39
2021/09/06 12:38:01;;;;;;;;;;;25.80;29.70;;;;;;4359934;32;20413;-38
2021/09/06 12:40:27;;;;;;;;;;;25.60;29.60;;;;;;4345701;32;19966;-38
2021/09/06 12:42:53;;;;;;;;;;;25.30;29.70;;;;;;4350849;32;20032;-38
2021/09/06 12:45:19;;;;;;;;;;;25.00;29.80;;;;;;4345149;33;19961;-37
2021/09/06 12:47:46;;;;;;;;;;;24.80;30.00;;;;;;4344770;33;19979;-38
2021/09/06 12:50:12;;;;;;;;;;;24.70;29.60;;;;;;4345137;33;20149;-38
2021/09/06 12:52:38;;;;;;;;;;;24.60;29.60;;;;;;4344815;33;20531;-38
2021/09/06 12:55:06;;;;;;;;;;;24.70;29.50;;;;;;4312622;33;20035;-38
2021/09/06 12:57:33;;;;;;;;;;;24.70;29.50;;;;;;4313140;33;20063;-38
2021/09/06 12:59:59;;;;;;;;;;;24.80;29.30;;;;;;4300944;33;20053;-39
2021/09/06 13:02:26;;;;;;;;;;;25.00;29.20;;;;;;4312670;33;19983;-38
2021/09/06 13:04:52;;;;;;;;;;;25.30;28.20;;;;;;4312952;33;19979;-39
2021/09/06 13:07:18;;;;;;;;;;;25.50;28.10;;;;;;4312747;33;19978;-39
2021/09/06 13:09:44;;;;;;;;;;;25.60;27.90;;;;;;4312830;33;20069;-39
2021/09/06 13:12:10;;;;;;;;;;;25.80;27.80;;;;;;4312771;33;20051;-39
2021/09/06 13:14:37;;;;;;;;;;;25.80;27.60;;;;;;4325479;33;19975;-39
2021/09/06 13:17:03;;;;;;;;;;;25.70;27.40;;;;;;4327802;33;20439;-38
2021/09/06 13:19:29;;;;;;;;;;;25.60;27.50;;;;;;4314794;33;19971;-39
2021/09/06 13:21:55;;;;;;;;;;;25.50;27.50;;;;;;4327432;33;20533;-39
2021/09/06 13:24:22;;;;;;;;;;;25.50;27.50;;;;;;4327017;33;19967;-40
2021/09/06 13:26:48;;;;;;;;;;;25.40;27.40;;;;;;4328982;33;20394;-38
2021/09/06 13:29:14;;;;;;;;;;;25.40;27.40;;;;;;4329541;33;20399;-38
2021/09/06 13:31:41;;;;;;;;;;;25.30;27.30;;;;;;4329158;33;20416;-38
2021/09/06 13:34:07;;;;;;;;;;;25.30;27.40;;;;;;4329251;33;19962;-38
2021/09/06 13:36:33;;;;;;;;;;;25.20;27.40;;;;;;4329520;33;19967;-39
2021/09/06 13:39:00;;;;;;;;;;;25.20;27.50;;;;;;4329111;33;20395;-40
2021/09/06 13:41:26;;;;;;;;;;;25.10;27.40;;;;;;4329423;33;20054;-38
2021/09/06 13:43:52;;;;;;;;;;;25.10;27.40;;;;;;4344264;33;20462;-39
2021/09/06 13:46:19;;;;;;;;;;;25.00;27.30;;;;;;4343535;33;20464;-39
2021/09/06 13:48:45;;;;;;;;;;;25.00;27.30;;;;;;4343984;33;20031;-39
2021/09/06 13:51:11;;;;;;;;;;;25.00;27.30;;;;;;4330471;33;20075;-39
2021/09/06 13:53:39;;;;;;;;;;;25.00;27.40;;;;;;4343981;33;20041;-39
2021/09/06 13:56:11;;;;;;;;;;;25.10;27.50;;;;;;4312210;33;20021;-39
2021/09/06 13:58:40;;;;;;;;;;;25.10;27.90;;;;;;4311896;33;20153;-38
2021/09/06 14:01:09;;;;;;;;;;;24.90;28.30;;;;;;4311911;33;20059;-39
2021/09/06 14:03:35;;;;;;;;;;;24.70;28.80;;;;;;4312266;33;20064;-39
2021/09/06 14:06:03;;;;;;;;;;;24.50;28.90;;;;;;4311913;33;20050;-39
2021/09/06 14:08:29;;;;;;;;;;;24.40;29.10;;;;;;4299903;33;19971;-40
2021/09/06 14:10:56;;;;;;;;;;;24.40;29.30;;;;;;4311670;33;19981;-39
2021/09/06 14:13:22;;;;;;;;;;;24.40;29.30;;;;;;4317014;33;20055;-39
2021/09/06 14:15:48;;;;;;;;;;;24.50;29.40;;;;;;4326495;33;19964;-38